Time;durP1;ratioP1;P1;durP2;ratioP2;P2;SDS_P1;SDS_P2;PMS_P1;PMS_P2;Temp;Humidity;BMP_temperature;BMP_pressure;BME280_temperature;BME280_humidity;BME280_pressure;Samples;Min_cycle;Max_cycle;Signal;HPM_P1;HPM_P2
2022/01/11 00:02:16;;;;;;;43.60;13.07;;;0.00;99.90;;;;;;5014877;28;20392;-70
2022/01/11 00:04:41;;;;;;;35.90;12.05;;;0.00;99.90;;;;;;5014037;28;20100;-81
2022/01/11 00:07:11;;;;;;;50.35;15.75;;;0.00;99.90;;;;;;5034428;28;20064;-71
2022/01/11 00:09:42;;;;;;;61.40;13.52;;;0.00;99.90;;;;;;5034208;28;20052;-70
2022/01/11 00:12:09;;;;;;;41.13;12.52;;;0.00;99.90;;;;;;5034484;28;20037;-71
2022/01/11 00:14:35;;;;;;;39.55;11.27;;;0.00;99.90;;;;;;5034229;28;20131;-69
2022/01/11 00:17:01;;;;;;;71.65;14.10;;;0.00;99.90;;;;;;5035718;28;20046;-69
2022/01/11 00:19:32;;;;;;;60.58;15.65;;;0.00;99.90;;;;;;5038470;28;20124;-72
2022/01/11 00:22:00;;;;;;;42.45;13.63;;;-0.10;99.90;;;;;;5037684;28;20052;-68
2022/01/11 00:24:30;;;;;;;46.05;13.05;;;-0.10;99.90;;;;;;5034202;28;20483;-71
2022/01/11 00:26:57;;;;;;;42.60;13.27;;;-0.10;99.90;;;;;;5034578;28;20049;-73
2022/01/11 00:29:23;;;;;;;39.13;12.70;;;-0.10;99.90;;;;;;5034196;28;20041;-70
2022/01/11 00:31:49;;;;;;;56.53;13.20;;;-0.10;99.90;;;;;;5034037;28;20141;-73
2022/01/11 00:34:17;;;;;;;43.78;13.48;;;-0.10;99.90;;;;;;5033786;28;20049;-70
2022/01/11 00:36:44;;;;;;;61.00;13.80;;;-0.10;99.90;;;;;;5015526;28;20050;-73
2022/01/11 00:39:11;;;;;;;53.42;14.00;;;-0.20;99.90;;;;;;5034193;28;20049;-71
2022/01/11 00:41:38;;;;;;;44.00;13.27;;;-0.20;99.90;;;;;;5033510;28;20048;-68
2022/01/11 00:44:05;;;;;;;51.92;13.05;;;-0.20;99.90;;;;;;5033655;28;20045;-74
2022/01/11 00:46:31;;;;;;;44.58;12.25;;;-0.20;99.90;;;;;;5033618;28;20037;-73
2022/01/11 00:48:56;;;;;;;77.47;16.17;;;-0.20;99.90;;;;;;5033645;28;20499;-77
2022/01/11 00:51:22;;;;;;;52.13;15.13;;;-0.30;99.90;;;;;;5033500;28;20132;-71
2022/01/11 00:53:48;;;;;;;39.10;12.02;;;-0.30;99.90;;;;;;5033448;28;20037;-69
2022/01/11 00:56:13;;;;;;;51.03;13.65;;;-0.30;99.90;;;;;;5033364;28;20439;-69
2022/01/11 00:58:39;;;;;;;63.55;14.35;;;-0.40;99.90;;;;;;5015521;28;20060;-71
2022/01/11 01:01:05;;;;;;;52.47;13.85;;;-0.40;99.90;;;;;;5033525;28;20052;-73
2022/01/11 01:03:30;;;;;;;50.97;12.68;;;-0.50;99.90;;;;;;5033191;28;20041;-73
2022/01/11 01:05:56;;;;;;;57.58;12.48;;;-0.40;99.90;;;;;;5033097;28;20053;-71
2022/01/11 01:08:22;;;;;;;88.47;18.27;;;-0.50;99.90;;;;;;5033447;28;20407;-70
2022/01/11 01:10:48;;;;;;;70.20;17.52;;;-0.50;99.90;;;;;;5033023;28;20037;-70
2022/01/11 01:13:18;;;;;;;55.53;13.50;;;-0.50;99.90;;;;;;5032964;28;20475;-70
2022/01/11 01:15:47;;;;;;;47.70;16.08;;;-0.50;99.90;;;;;;5033416;28;20060;-72
2022/01/11 01:18:20;;;;;;;59.80;14.20;;;-0.50;99.90;;;;;;5033219;28;20080;-71
2022/01/11 01:20:45;;;;;;;61.00;14.35;;;-0.50;99.90;;;;;;5033048;28;20467;-71
2022/01/11 01:23:12;;;;;;;48.85;15.02;;;-0.50;99.90;;;;;;5033122;28;20120;-72
2022/01/11 01:25:39;;;;;;;55.65;16.08;;;-0.50;99.90;;;;;;5032970;28;20107;-70
2022/01/11 01:28:06;;;;;;;51.35;13.15;;;-0.50;99.90;;;;;;5032649;28;20107;-71
2022/01/11 01:30:32;;;;;;;66.47;16.13;;;-0.50;99.90;;;;;;5032926;28;20124;-70
2022/01/11 01:32:57;;;;;;;83.65;17.13;;;-0.50;99.90;;;;;;5015128;28;20053;-73
2022/01/11 01:35:27;;;;;;;60.90;15.82;;;-0.50;99.90;;;;;;5032773;28;20422;-69
2022/01/11 01:37:53;;;;;;;66.18;15.30;;;-0.60;99.90;;;;;;5032888;28;20084;-69
2022/01/11 01:40:19;;;;;;;73.95;18.35;;;-0.60;99.90;;;;;;5014806;28;20128;-70
2022/01/11 01:42:48;;;;;;;87.10;19.55;;;-0.60;99.90;;;;;;5032735;28;20041;-70
2022/01/11 01:45:14;;;;;;;56.03;14.85;;;-0.60;99.90;;;;;;5032712;28;20116;-71
2022/01/11 01:47:40;;;;;;;72.18;17.42;;;-0.60;99.90;;;;;;5032676;28;20053;-69
2022/01/11 01:50:08;;;;;;;83.25;16.40;;;-0.60;99.90;;;;;;5031966;28;20053;-69
2022/01/11 01:52:34;;;;;;;65.13;15.57;;;-0.60;99.90;;;;;;5032388;28;20610;-71
2022/01/11 01:55:00;;;;;;;68.35;17.42;;;-0.60;99.90;;;;;;5032745;28;20395;-70
2022/01/11 01:57:27;;;;;;;85.18;18.35;;;-0.60;99.90;;;;;;5032306;28;20057;-70
2022/01/11 01:59:53;;;;;;;74.97;15.13;;;-0.60;99.90;;;;;;5032680;28;20045;-71
2022/01/11 02:02:19;;;;;;;65.22;15.32;;;-0.60;99.90;;;;;;5032388;28;20128;-69
2022/01/11 02:04:47;;;;;;;114.20;20.77;;;-0.60;99.90;;;;;;5032341;28;20053;-73
2022/01/11 02:07:13;;;;;;;87.18;20.05;;;-0.60;99.90;;;;;;5032383;28;20126;-70
2022/01/11 02:09:40;;;;;;;48.45;15.43;;;-0.70;99.90;;;;;;5032668;28;20099;-71
2022/01/11 02:12:06;;;;;;;51.15;13.20;;;-0.60;99.90;;;;;;5032575;28;20049;-68
2022/01/11 02:14:31;;;;;;;50.00;14.68;;;-0.70;99.90;;;;;;5031929;28;20517;-71
2022/01/11 02:17:00;;;;;;;58.45;15.38;;;-0.60;99.90;;;;;;5014743;28;20057;-69
2022/01/11 02:19:26;;;;;;;37.13;13.70;;;-0.60;99.90;;;;;;5032252;28;20045;-73
2022/01/11 02:21:51;;;;;;;35.10;12.93;;;-0.60;99.90;;;;;;5032216;28;20088;-77
2022/01/11 02:24:18;;;;;;;62.00;14.95;;;-0.50;99.90;;;;;;5032263;28;20045;-81
2022/01/11 02:26:44;;;;;;;49.95;14.75;;;-0.50;99.90;;;;;;5014680;28;20100;-82
2022/01/11 02:29:10;;;;;;;36.97;12.23;;;-0.50;99.90;;;;;;5032085;28;20049;-80
2022/01/11 02:31:37;;;;;;;75.65;15.90;;;-0.50;99.90;;;;;;5032268;28;20479;-82
2022/01/11 02:34:03;;;;;;;73.43;16.50;;;-0.50;99.90;;;;;;5031998;28;20052;-75
2022/01/11 02:36:31;;;;;;;79.13;16.50;;;-0.50;99.90;;;;;;5032065;28;20041;-79
2022/01/11 02:38:58;;;;;;;90.65;17.88;;;-0.50;99.90;;;;;;5032557;28;20049;-80
2022/01/11 02:41:27;;;;;;;56.60;13.25;;;-0.70;99.90;;;;;;4997961;28;20057;-77
2022/01/11 02:43:53;;;;;;;71.30;15.60;;;-0.70;99.90;;;;;;5032019;28;20399;-76
2022/01/11 02:46:21;;;;;;;51.40;13.98;;;-0.70;99.90;;;;;;5031905;28;20041;-80
2022/01/11 02:48:48;;;;;;;53.42;14.52;;;-0.70;99.90;;;;;;5031931;28;20081;-71
2022/01/11 02:51:13;;;;;;;73.05;15.90;;;-0.60;99.90;;;;;;5031967;28;20041;-77
2022/01/11 02:53:44;;;;;;;60.95;14.57;;;-0.70;99.90;;;;;;5032259;28;20041;-81
2022/01/11 02:56:10;;;;;;;93.68;18.83;;;-0.70;99.90;;;;;;5031782;28;20045;-81
2022/01/11 02:58:36;;;;;;;66.85;12.88;;;-0.60;99.90;;;;;;5014017;28;20045;-72
2022/01/11 03:01:03;;;;;;;43.95;11.05;;;-0.70;99.90;;;;;;5033854;28;20046;-77
2022/01/11 03:03:28;;;;;;;77.80;17.95;;;-0.60;99.90;;;;;;5028195;28;20057;-75
2022/01/11 03:06:00;;;;;;;64.40;15.15;;;-0.60;99.90;;;;;;5015723;28;20499;-80
2022/01/11 03:08:28;;;;;;;74.25;16.05;;;-0.60;99.90;;;;;;5015948;28;20117;-78
2022/01/11 03:10:54;;;;;;;81.93;16.63;;;-0.60;99.90;;;;;;5015706;28;20484;-77
2022/01/11 03:13:20;;;;;;;77.25;17.33;;;-0.60;99.90;;;;;;5015448;28;20042;-81
2022/01/11 03:15:47;;;;;;;72.40;17.10;;;-0.70;99.90;;;;;;5015241;28;20412;-78
2022/01/11 03:18:14;;;;;;;63.90;15.82;;;-0.70;99.90;;;;;;5015290;28;20046;-78
2022/01/11 03:20:41;;;;;;;57.88;14.85;;;-0.70;99.90;;;;;;5015461;28;20085;-79
2022/01/11 03:23:07;;;;;;;71.78;17.40;;;-0.70;99.90;;;;;;5015714;28;20093;-80
2022/01/11 03:25:33;;;;;;;75.47;14.63;;;-0.70;99.90;;;;;;5015391;28;20124;-80
2022/01/11 03:27:59;;;;;;;116.90;19.38;;;-0.70;99.90;;;;;;5015630;28;20053;-80
2022/01/11 03:30:25;;;;;;;51.47;14.77;;;-0.70;99.90;;;;;;5015021;28;20046;-73
2022/01/11 03:32:51;;;;;;;51.78;13.85;;;-0.70;99.90;;;;;;5016470;28;20038;-80
2022/01/11 03:35:17;;;;;;;97.80;17.23;;;-0.70;99.90;;;;;;5000102;28;20046;-80
2022/01/11 03:37:45;;;;;;;71.57;15.93;;;-0.70;99.90;;;;;;5018099;28;20093;-80
2022/01/11 03:40:17;;;;;;;73.78;17.30;;;-0.70;99.90;;;;;;4999578;28;20050;-80
2022/01/11 03:42:43;;;;;;;51.73;15.40;;;-0.80;99.90;;;;;;5016346;28;20052;-81
2022/01/11 03:45:10;;;;;;;46.72;13.45;;;-0.80;99.90;;;;;;5015101;28;20340;-79
2022/01/11 03:47:36;;;;;;;57.97;16.00;;;-0.80;99.90;;;;;;5014930;28;20053;-80
2022/01/11 03:50:04;;;;;;;51.25;12.73;;;-0.80;99.90;;;;;;5014929;28;20129;-81
2022/01/11 03:52:30;;;;;;;80.13;16.73;;;-0.80;99.90;;;;;;5015162;28;20049;-80
2022/01/11 03:57:30;;;;;;;53.45;13.80;;;-0.80;99.90;;;;;;4997253;28;20058;-80
2022/01/11 04:00:00;;;;;;;40.08;13.43;;;-0.90;99.90;;;;;;4997228;28;20065;-79
2022/01/11 04:02:27;;;;;;;98.50;18.25;;;-0.90;99.90;;;;;;5014295;28;20117;-76
2022/01/11 04:04:52;;;;;;;40.95;13.98;;;-0.80;99.90;;;;;;4996702;28;20586;-72
2022/01/11 04:07:24;;;;;;;39.90;11.73;;;-0.80;99.90;;;;;;5014760;28;20058;-70
2022/01/11 04:09:51;;;;;;;48.15;13.25;;;-0.80;99.90;;;;;;5014884;28;20046;-77
2022/01/11 04:12:18;;;;;;;38.47;12.30;;;-0.90;99.90;;;;;;5014029;28;20048;-74
2022/01/11 04:14:43;;;;;;;43.20;12.63;;;-0.90;99.90;;;;;;5014545;28;20042;-69
2022/01/11 04:17:10;;;;;;;56.50;16.77;;;-0.90;99.90;;;;;;5014131;28;20738;-76
2022/01/11 04:19:35;;;;;;;51.33;12.65;;;-0.90;99.90;;;;;;5014490;28;20061;-76
2022/01/11 04:22:02;;;;;;;50.35;11.98;;;-1.00;99.90;;;;;;4997255;28;20058;-78
2022/01/11 04:24:27;;;;;;;46.90;11.90;;;-1.00;99.90;;;;;;5015866;28;20187;-77
2022/01/11 04:26:53;;;;;;;42.13;12.43;;;-1.00;99.90;;;;;;5018040;28;20116;-75
2022/01/11 04:29:19;;;;;;;49.75;13.20;;;-1.00;99.90;;;;;;5018224;28;20132;-74
2022/01/11 04:31:45;;;;;;;41.67;13.00;;;-1.00;99.90;;;;;;5016541;28;20112;-73
2022/01/11 04:34:10;;;;;;;50.60;13.70;;;-1.00;99.90;;;;;;4998091;28;20492;-69
2022/01/11 04:36:37;;;;;;;43.22;11.98;;;-1.10;99.90;;;;;;4996755;28;20415;-70
2022/01/11 04:39:07;;;;;;;62.70;15.52;;;-1.10;99.90;;;;;;5014241;28;20060;-69
2022/01/11 04:41:34;;;;;;;59.47;14.40;;;-1.10;99.90;;;;;;4996534;28;20042;-69
2022/01/11 04:44:00;;;;;;;34.40;11.57;;;-1.10;99.90;;;;;;5014040;28;20042;-71
2022/01/11 04:46:26;;;;;;;45.40;13.85;;;-1.10;99.90;;;;;;5013747;28;20500;-71
2022/01/11 04:48:53;;;;;;;38.42;11.27;;;-1.10;99.90;;;;;;5013542;28;20415;-71
2022/01/11 04:51:20;;;;;;;63.33;13.98;;;-1.10;99.90;;;;;;4996291;28;20056;-71
2022/01/11 04:53:46;;;;;;;28.83;9.63;;;-1.10;99.90;;;;;;5013995;28;20042;-70
2022/01/11 04:56:12;;;;;;;34.72;11.85;;;-1.10;99.90;;;;;;5013860;28;20052;-70
2022/01/11 04:58:38;;;;;;;73.13;15.57;;;-1.00;99.90;;;;;;5013766;28;20685;-70
2022/01/11 05:01:04;;;;;;;75.00;14.73;;;-1.10;99.90;;;;;;5013739;28;20144;-71
2022/01/11 05:03:30;;;;;;;135.10;26.17;;;-1.10;99.90;;;;;;5013151;28;20510;-72
2022/01/11 05:05:56;;;;;;;108.47;27.98;;;-1.20;99.90;;;;;;5013439;28;20380;-67
2022/01/11 05:08:21;;;;;;;223.25;40.20;;;-1.20;99.90;;;;;;5013351;28;20042;-71
2022/01/11 05:10:47;;;;;;;103.30;24.23;;;-1.20;99.90;;;;;;5014025;28;20052;-71
2022/01/11 05:13:15;;;;;;;85.20;24.02;;;-1.20;99.90;;;;;;4996335;28;20045;-69
2022/01/11 05:15:40;;;;;;;162.40;29.75;;;-1.20;99.90;;;;;;5013407;28;20045;-69
2022/01/11 05:18:07;;;;;;;206.77;34.53;;;-1.20;99.90;;;;;;4995969;28;20423;-69
2022/01/11 05:20:34;;;;;;;97.32;24.00;;;-1.20;99.90;;;;;;4995522;28;20100;-70
2022/01/11 05:22:59;;;;;;;145.90;28.10;;;-1.20;99.90;;;;;;4994768;28;20045;-70
2022/01/11 05:25:25;;;;;;;74.05;22.48;;;-1.20;99.90;;;;;;5012635;28;20503;-69
2022/01/11 05:27:51;;;;;;;197.15;32.25;;;-1.20;99.90;;;;;;5013422;28;20092;-69
2022/01/11 05:30:18;;;;;;;142.50;28.85;;;-1.10;99.90;;;;;;4995495;28;20053;-69
2022/01/11 05:32:43;;;;;;;138.80;27.70;;;-1.10;99.90;;;;;;5013219;28;20118;-69
2022/01/11 05:35:11;;;;;;;84.65;24.63;;;-1.10;99.90;;;;;;5012748;28;20494;-70
2022/01/11 05:37:37;;;;;;;323.63;40.00;;;-1.10;99.90;;;;;;4995566;28;20042;-70
2022/01/11 05:40:05;;;;;;;106.78;27.20;;;-1.10;99.90;;;;;;4995110;28;20105;-71
2022/01/11 05:42:30;;;;;;;102.60;24.65;;;-1.10;99.90;;;;;;5013238;28;20117;-69
2022/01/11 05:44:56;;;;;;;84.30;25.25;;;-1.10;99.90;;;;;;5013208;28;20080;-73
2022/01/11 05:47:22;;;;;;;78.70;23.58;;;-1.10;99.90;;;;;;5013231;28;20865;-69
2022/01/11 05:52:19;;;;;;;81.95;24.30;;;-1.10;99.90;;;;;;5030661;28;20045;-69
2022/01/11 05:54:44;;;;;;;80.32;23.00;;;-1.10;99.90;;;;;;5015172;28;20049;-71
2022/01/11 05:57:10;;;;;;;106.45;25.50;;;-1.10;99.90;;;;;;5032621;28;20129;-71
2022/01/11 05:59:36;;;;;;;119.70;26.58;;;-0.60;99.90;;;;;;5032680;28;20053;-73
2022/01/11 06:02:02;;;;;;;116.53;26.80;;;-1.00;99.90;;;;;;5032396;28;20038;-72
2022/01/11 06:04:28;;;;;;;96.43;27.13;;;-1.10;99.90;;;;;;5032324;28;20042;-69
2022/01/11 06:06:53;;;;;;;85.30;22.70;;;-1.10;99.90;;;;;;5032192;28;20041;-76
2022/01/11 06:09:19;;;;;;;172.63;30.70;;;-1.00;99.90;;;;;;5015054;28;20049;-80
2022/01/11 06:11:45;;;;;;;120.05;28.85;;;-1.00;99.90;;;;;;5032237;28;20495;-82
2022/01/11 06:14:11;;;;;;;97.88;25.77;;;-1.00;99.90;;;;;;5032408;28;20052;-76
2022/01/11 06:16:36;;;;;;;111.80;25.10;;;-1.00;99.90;;;;;;5032348;28;20065;-80
2022/01/11 06:19:05;;;;;;;138.93;27.90;;;-1.00;99.90;;;;;;5032187;28;20045;-81
2022/01/11 06:21:31;;;;;;;151.38;28.70;;;-1.00;99.90;;;;;;5014236;28;20499;-79
2022/01/11 06:23:57;;;;;;;96.88;25.13;;;-0.90;99.90;;;;;;5032467;28;20128;-81
2022/01/11 06:26:22;;;;;;;137.55;28.30;;;-1.00;99.90;;;;;;5027198;28;20107;-71
2022/01/11 06:28:48;;;;;;;237.43;34.40;;;-0.90;99.90;;;;;;5030766;28;20415;-72
2022/01/11 06:31:18;;;;;;;265.83;39.88;;;-0.90;99.90;;;;;;4999029;28;20494;-71
2022/01/11 06:33:43;;;;;;;134.70;28.48;;;-0.90;99.90;;;;;;5031042;28;20049;-72
2022/01/11 06:36:11;;;;;;;243.10;38.10;;;-0.90;99.90;;;;;;5032731;28;20053;-70
2022/01/11 06:38:38;;;;;;;195.10;34.47;;;-0.90;99.90;;;;;;5033579;28;20505;-71
2022/01/11 06:41:04;;;;;;;237.73;36.03;;;-0.90;99.90;;;;;;5033446;28;20053;-73
2022/01/11 06:43:30;;;;;;;199.02;32.08;;;-0.90;99.90;;;;;;5033482;28;20045;-71
2022/01/11 06:45:55;;;;;;;143.52;28.40;;;-0.90;99.90;;;;;;5015348;28;20049;-71
2022/01/11 06:48:21;;;;;;;189.23;29.98;;;-0.90;99.90;;;;;;5032819;28;20076;-71
2022/01/11 06:50:47;;;;;;;104.88;27.45;;;-0.80;99.90;;;;;;5015198;28;20140;-72
2022/01/11 06:53:13;;;;;;;96.47;28.83;;;-0.80;99.90;;;;;;5033333;28;20144;-74
2022/01/11 06:55:39;;;;;;;102.15;27.85;;;-0.80;99.90;;;;;;5032574;28;20144;-71
2022/01/11 06:58:05;;;;;;;165.38;36.72;;;-0.80;99.90;;;;;;5033975;28;20128;-71
2022/01/11 07:00:31;;;;;;;127.53;30.75;;;-0.80;99.90;;;;;;5035520;28;20124;-82
2022/01/11 07:02:56;;;;;;;110.47;29.33;;;-0.80;99.90;;;;;;5034780;28;20033;-81
2022/01/11 07:05:22;;;;;;;122.95;32.15;;;-0.80;99.90;;;;;;5035130;28;20045;-83
2022/01/11 07:07:48;;;;;;;121.38;32.63;;;-0.80;99.90;;;;;;5034741;28;20454;-83
2022/01/11 07:10:14;;;;;;;145.23;35.78;;;-0.70;99.90;;;;;;5034940;28;20487;-80
2022/01/11 07:12:40;;;;;;;117.93;32.42;;;-0.80;99.90;;;;;;5034844;28;20045;-83
2022/01/11 07:15:06;;;;;;;153.63;39.40;;;-0.80;99.90;;;;;;5034531;28;20103;-83
2022/01/11 07:17:35;;;;;;;134.68;34.63;;;-0.80;99.90;;;;;;5035322;28;20044;-69
2022/01/11 07:20:04;;;;;;;86.45;34.28;;;-0.20;99.90;;;;;;5038214;28;20099;-70
2022/01/11 07:22:29;;;;;;;120.03;33.63;;;-0.70;99.90;;;;;;5035192;28;20053;-69
2022/01/11 07:24:55;;;;;;;95.00;33.65;;;-0.70;99.90;;;;;;5016161;28;20056;-70
2022/01/11 07:27:21;;;;;;;140.98;37.22;;;-0.70;99.90;;;;;;5034219;28;20199;-71
2022/01/11 07:29:47;;;;;;;147.05;40.80;;;-0.70;99.90;;;;;;5034151;28;20049;-70
2022/01/11 07:32:13;;;;;;;80.65;33.72;;;-0.70;99.90;;;;;;5034327;28;20045;-70
2022/01/11 07:34:38;;;;;;;114.10;33.83;;;-0.70;99.90;;;;;;5034008;28;20136;-71
2022/01/11 07:37:04;;;;;;;90.75;33.00;;;0.10;99.90;;;;;;5016862;28;20103;-70
2022/01/11 07:39:30;;;;;;;99.00;35.25;;;-0.70;99.90;;;;;;5016368;28;20088;-70
2022/01/11 07:41:58;;;;;;;103.85;35.22;;;-0.70;99.90;;;;;;5034191;28;20099;-71
2022/01/11 07:44:25;;;;;;;83.32;31.58;;;0.00;99.90;;;;;;5033930;28;20053;-68
2022/01/11 07:46:52;;;;;;;90.75;33.10;;;-0.70;99.90;;;;;;5032842;28;20516;-72
2022/01/11 07:49:19;;;;;;;72.78;30.17;;;-0.70;99.90;;;;;;5033829;28;20131;-69
2022/01/11 07:51:45;;;;;;;69.75;27.63;;;-0.70;99.90;;;;;;5016006;28;20096;-71
2022/01/11 07:54:11;;;;;;;124.43;36.15;;;-0.80;99.90;;;;;;5015828;28;20451;-72
2022/01/11 07:56:37;;;;;;;78.80;33.92;;;-0.80;99.90;;;;;;5030882;28;20403;-76
2022/01/11 07:59:03;;;;;;;70.25;28.20;;;-0.70;99.90;;;;;;5012638;28;20098;-76
2022/01/11 08:01:29;;;;;;;75.60;31.40;;;-0.70;99.90;;;;;;5013047;28;20068;-75
2022/01/11 08:03:55;;;;;;;60.97;26.60;;;-0.80;99.90;;;;;;5012464;28;20399;-76
2022/01/11 08:06:21;;;;;;;57.58;24.35;;;-0.80;99.90;;;;;;5012168;28;20053;-75
2022/01/11 08:08:46;;;;;;;58.83;26.02;;;-0.80;99.90;;;;;;5012097;28;20045;-75
2022/01/11 08:11:12;;;;;;;59.88;28.10;;;-0.80;99.90;;;;;;4994708;28;20052;-79
2022/01/11 08:13:39;;;;;;;61.15;26.52;;;-0.80;99.90;;;;;;5012570;28;20054;-72
2022/01/11 08:16:04;;;;;;;69.95;28.70;;;-0.80;99.90;;;;;;5012755;28;20049;-74
2022/01/11 08:18:30;;;;;;;64.93;28.85;;;-0.80;99.90;;;;;;5013140;28;20095;-72
2022/01/11 08:20:56;;;;;;;57.47;25.52;;;-0.80;99.90;;;;;;5029629;28;20072;-69
2022/01/11 08:23:21;;;;;;;58.47;25.17;;;-0.70;99.90;;;;;;5029819;28;20056;-71
2022/01/11 08:25:47;;;;;;;59.20;26.70;;;-0.70;99.90;;;;;;5011549;28;20137;-69
2022/01/11 08:28:13;;;;;;;57.38;25.17;;;-0.70;99.90;;;;;;5011800;28;20045;-71
2022/01/11 08:30:40;;;;;;;56.45;25.55;;;-0.70;99.90;;;;;;4993168;28;20502;-71
2022/01/11 08:33:07;;;;;;;54.42;25.33;;;-0.60;99.90;;;;;;5012780;28;20049;-70
2022/01/11 08:35:34;;;;;;;53.05;23.08;;;-0.60;99.90;;;;;;5011330;28;20058;-71
2022/01/11 08:38:00;;;;;;;56.47;24.65;;;0.10;99.90;;;;;;5030398;28;20433;-72
2022/01/11 08:40:26;;;;;;;55.97;23.52;;;-0.50;99.90;;;;;;5027588;28;20061;-70
2022/01/11 08:42:52;;;;;;;57.83;23.10;;;-0.50;99.90;;;;;;5011425;28;20054;-72
2022/01/11 08:45:19;;;;;;;51.28;21.50;;;-0.50;99.90;;;;;;5029190;28;20037;-69
2022/01/11 08:47:45;;;;;;;51.00;22.20;;;-0.40;99.90;;;;;;5011240;28;20068;-73
2022/01/11 08:50:12;;;;;;;57.47;24.90;;;1.20;99.90;;;;;;5028135;28;20140;-71
2022/01/11 08:52:39;;;;;;;47.70;22.85;;;-0.30;99.90;;;;;;5028460;28;20128;-71
2022/01/11 08:55:07;;;;;;;53.65;23.80;;;-0.30;99.90;;;;;;5011272;28;20119;-74
2022/01/11 08:57:33;;;;;;;45.47;21.33;;;-0.20;99.90;;;;;;5028625;28;20479;-72
2022/01/11 08:59:59;;;;;;;52.03;22.02;;;1.10;99.90;;;;;;5013941;28;20052;-69
2022/01/11 09:02:25;;;;;;;48.67;21.92;;;-0.10;99.90;;;;;;5027366;28;20045;-70
2022/01/11 09:04:53;;;;;;;47.90;20.60;;;-0.10;99.90;;;;;;5011912;28;20057;-70
2022/01/11 09:07:19;;;;;;;51.72;23.45;;;-0.10;99.90;;;;;;5029098;28;20041;-71
2022/01/11 09:09:45;;;;;;;53.92;21.75;;;0.00;99.90;;;;;;5028976;28;20041;-73
2022/01/11 09:12:13;;;;;;;47.20;21.92;;;0.80;99.90;;;;;;5027273;28;20049;-71
2022/01/11 09:14:39;;;;;;;45.65;19.83;;;0.00;99.90;;;;;;5029161;28;20080;-71
2022/01/11 09:17:05;;;;;;;48.25;21.02;;;0.00;99.90;;;;;;5030130;28;20042;-71
2022/01/11 09:19:32;;;;;;;44.75;20.63;;;0.10;99.90;;;;;;5026090;28;20112;-71
2022/01/11 09:21:58;;;;;;;43.10;20.15;;;0.10;99.90;;;;;;5035912;28;21356;-71
2022/01/11 09:24:29;;;;;;;40.60;19.75;;;0.30;99.90;;;;;;5052473;28;20050;-71
2022/01/11 09:27:02;;;;;;;41.08;20.98;;;0.10;99.90;;;;;;5031159;28;20092;-69
2022/01/11 09:29:29;;;;;;;41.92;19.65;;;0.10;99.90;;;;;;4997911;28;20214;-71
2022/01/11 09:31:56;;;;;;;41.45;20.80;;;0.10;99.90;;;;;;5010683;28;20467;-74
2022/01/11 09:34:23;;;;;;;44.80;19.55;;;0.10;99.90;;;;;;5012613;28;20053;-74
2022/01/11 09:36:49;;;;;;;43.63;19.48;;;0.10;99.90;;;;;;5031776;28;20045;-70
2022/01/11 09:39:15;;;;;;;41.65;19.92;;;0.20;99.90;;;;;;5030904;28;20140;-73
2022/01/11 09:41:41;;;;;;;40.53;19.13;;;0.20;99.90;;;;;;5028090;28;20057;-70
2022/01/11 09:44:08;;;;;;;40.10;19.55;;;0.90;99.90;;;;;;5010352;28;20057;-72
2022/01/11 09:46:34;;;;;;;42.00;18.90;;;0.30;99.90;;;;;;5028761;28;20095;-70
2022/01/11 09:49:01;;;;;;;41.60;19.73;;;0.30;99.90;;;;;;5011711;28;20049;-72
2022/01/11 09:51:26;;;;;;;40.70;19.40;;;0.30;99.90;;;;;;5026849;28;20088;-68
2022/01/11 09:53:53;;;;;;;40.28;19.60;;;0.40;99.90;;;;;;5029011;28;20127;-70
2022/01/11 09:56:18;;;;;;;42.38;17.98;;;0.40;99.90;;;;;;5005626;28;20538;-68
2022/01/11 09:58:45;;;;;;;40.13;18.75;;;0.50;99.90;;;;;;5011299;28;20044;-72
2022/01/11 10:01:11;;;;;;;34.67;18.63;;;0.50;99.90;;;;;;5027094;28;20081;-73
2022/01/11 10:03:55;;;;;;;44.65;18.75;;;0.50;99.90;;;;;;5027820;28;20080;-75
2022/01/11 10:06:22;;;;;;;34.10;17.10;;;0.60;99.90;;;;;;5025285;28;20060;-76
2022/01/11 10:08:49;;;;;;;38.65;18.02;;;0.50;99.90;;;;;;5027317;28;20060;-73
2022/01/11 10:11:32;;;;;;;35.55;18.85;;;0.60;99.90;;;;;;5026187;28;20037;-71
2022/01/11 10:13:57;;;;;;;36.85;18.88;;;0.60;99.90;;;;;;5027761;28;20046;-76
2022/01/11 10:16:28;;;;;;;37.40;16.65;;;0.70;99.90;;;;;;5010161;28;20067;-70
2022/01/11 10:18:55;;;;;;;36.55;18.02;;;0.70;99.90;;;;;;5027505;28;20045;-76
2022/01/11 10:21:39;;;;;;;41.63;18.17;;;0.80;99.90;;;;;;5027016;28;20409;-75
2022/01/11 10:24:24;;;;;;;38.78;18.98;;;0.80;99.90;;;;;;5023895;28;20064;-73
2022/01/11 10:26:53;;;;;;;37.03;18.05;;;0.80;99.90;;;;;;5009932;28;20041;-74
2022/01/11 10:29:40;;;;;;;39.15;17.73;;;0.80;99.90;;;;;;4993086;28;20060;-76
2022/01/11 10:32:20;;;;;;;37.30;17.55;;;0.80;99.90;;;;;;5026377;28;20502;-73
2022/01/11 10:34:49;;;;;;;36.15;16.63;;;0.80;99.90;;;;;;5009789;28;20045;-73
2022/01/11 10:37:46;;;;;;;38.42;17.35;;;0.80;99.90;;;;;;5024277;28;20037;-74
2022/01/11 10:40:26;;;;;;;31.45;15.88;;;0.70;99.90;;;;;;5009169;28;20525;-73
2022/01/11 10:42:57;;;;;;;33.10;16.08;;;0.80;99.90;;;;;;5027360;28;20077;-76
2022/01/11 10:45:25;;;;;;;34.47;16.10;;;0.80;99.90;;;;;;5027329;28;20487;-78
2022/01/11 10:47:54;;;;;;;37.80;17.88;;;0.80;99.90;;;;;;5009629;28;20136;-76
2022/01/11 10:50:29;;;;;;;31.45;16.58;;;0.80;99.90;;;;;;5025896;28;20136;-77
2022/01/11 10:52:59;;;;;;;30.40;15.48;;;0.80;99.90;;;;;;5022759;28;20052;-73
2022/01/11 10:55:28;;;;;;;32.35;17.40;;;0.80;99.90;;;;;;5028370;28;20044;-74
2022/01/11 10:58:00;;;;;;;32.10;15.10;;;0.90;99.90;;;;;;5027105;28;20053;-73
2022/01/11 11:00:29;;;;;;;32.70;15.27;;;0.90;99.90;;;;;;5024997;28;20049;-76
2022/01/11 11:03:11;;;;;;;32.35;16.55;;;0.90;99.90;;;;;;5026279;28;20049;-74
2022/01/11 11:05:44;;;;;;;35.78;15.77;;;1.00;99.90;;;;;;5028580;28;20049;-74
2022/01/11 11:08:21;;;;;;;33.92;15.68;;;2.10;99.90;;;;;;5026978;28;20494;-74
2022/01/11 11:10:55;;;;;;;35.08;15.13;;;1.10;99.90;;;;;;5023935;28;20055;-74
2022/01/11 11:13:31;;;;;;;30.45;15.38;;;1.10;99.90;;;;;;5027711;28;20056;-75
2022/01/11 11:16:04;;;;;;;30.70;15.65;;;1.10;99.90;;;;;;5022410;28;20050;-77
2022/01/11 11:18:33;;;;;;;32.03;16.17;;;1.20;99.90;;;;;;5027538;28;20120;-74
2022/01/11 11:21:14;;;;;;;28.98;15.40;;;1.20;99.90;;;;;;5012791;28;20058;-72
2022/01/11 11:23:40;;;;;;;30.00;15.07;;;1.20;99.90;;;;;;5009745;28;20048;-73
2022/01/11 11:26:06;;;;;;;29.75;14.60;;;1.30;99.90;;;;;;5002903;28;20193;-75
2022/01/11 11:28:31;;;;;;;32.47;15.60;;;1.30;99.90;;;;;;4992174;28;20133;-73
2022/01/11 11:30:58;;;;;;;31.52;15.48;;;1.30;99.90;;;;;;4995516;28;20057;-76
2022/01/11 11:33:25;;;;;;;34.17;16.13;;;1.40;99.90;;;;;;5009207;28;20742;-77
2022/01/11 11:35:51;;;;;;;31.33;16.33;;;1.50;99.90;;;;;;5009950;28;20566;-72
2022/01/11 11:38:20;;;;;;;27.85;14.93;;;1.50;99.90;;;;;;5010530;28;20153;-72
2022/01/11 11:40:52;;;;;;;30.80;16.13;;;1.50;99.90;;;;;;4990318;28;20137;-73
2022/01/11 11:43:17;;;;;;;31.52;15.88;;;1.60;99.90;;;;;;5006803;28;20046;-73
2022/01/11 11:45:44;;;;;;;26.10;14.40;;;1.70;99.90;;;;;;4992380;28;20038;-75
2022/01/11 11:48:18;;;;;;;28.42;15.10;;;1.90;99.90;;;;;;5008292;28;20053;-77
2022/01/11 11:50:52;;;;;;;30.25;14.65;;;2.00;99.90;;;;;;5009462;28;20073;-72
2022/01/11 11:53:31;;;;;;;29.58;14.32;;;2.10;99.90;;;;;;5028658;28;20056;-75
2022/01/11 11:56:19;;;;;;;31.13;16.10;;;2.20;99.90;;;;;;5010320;28;20057;-80
2022/01/11 11:58:55;;;;;;;29.95;13.57;;;2.40;99.90;;;;;;5019936;28;20058;-77
2022/01/11 12:01:42;;;;;;;30.80;16.15;;;2.30;99.90;;;;;;5016503;28;20045;-73
2022/01/11 12:04:31;;;;;;;25.88;13.18;;;2.40;99.90;;;;;;5018813;28;20051;-73
2022/01/11 12:07:17;;;;;;;26.58;13.48;;;2.40;99.90;;;;;;4997289;28;20838;-73
2022/01/11 12:09:45;;;;;;;32.45;14.32;;;2.50;99.90;;;;;;5014781;28;20041;-74
2022/01/11 12:12:16;;;;;;;34.67;13.75;;;2.50;99.90;;;;;;4995908;28;20057;-78
2022/01/11 12:14:42;;;;;;;28.77;12.25;;;2.50;99.90;;;;;;5022463;28;20038;-75
2022/01/11 12:17:16;;;;;;;26.52;13.10;;;3.30;99.90;;;;;;4997993;28;20056;-72
2022/01/11 12:19:41;;;;;;;23.08;12.00;;;2.60;99.90;;;;;;5010226;28;20411;-73
2022/01/11 12:22:07;;;;;;;23.88;12.35;;;2.60;99.90;;;;;;4993482;28;20061;-74
2022/01/11 12:24:37;;;;;;;27.38;12.68;;;2.70;99.90;;;;;;5010290;28;20038;-77
2022/01/11 12:27:03;;;;;;;25.10;12.07;;;2.80;99.90;;;;;;5011266;28;20180;-72
2022/01/11 12:29:29;;;;;;;25.05;11.95;;;2.90;99.90;;;;;;5011467;28;20046;-75
2022/01/11 12:32:05;;;;;;;23.85;10.93;;;2.90;99.90;;;;;;5004799;28;20041;-72
2022/01/11 12:34:46;;;;;;;21.98;11.13;;;3.00;99.90;;;;;;5027970;28;20084;-71
2022/01/11 12:37:20;;;;;;;24.77;12.00;;;3.20;99.90;;;;;;5028198;28;20045;-77